Time;durP1;ratioP1;P1;durP2;ratioP2;P2;SDS_P1;SDS_P2;PMS_P1;PMS_P2;Temp;Humidity;BMP_temperature;BMP_pressure;BME280_temperature;BME280_humidity;BME280_pressure;Samples;Min_cycle;Max_cycle;Signal;HPM_P1;HPM_P2
2023/08/17 00:00:10;;;;;;;1.90;1.90;;;;;;;;;;4893944;29;20523;-71
2023/08/17 00:02:36;;;;;;;1.90;1.80;;;;;;;;;;4893802;29;20528;-72
2023/08/17 00:05:02;;;;;;;1.90;1.80;;;;;;;;;;4894287;28;20489;-73
2023/08/17 00:07:28;;;;;;;1.50;1.40;;;;;;;;;;4893591;28;20473;-71
2023/08/17 00:09:54;;;;;;;3.80;2.20;;;;;;;;;;4893423;29;20894;-73
2023/08/17 00:12:20;;;;;;;1.83;1.83;;;;;;;;;;4894177;28;20181;-74
2023/08/17 00:14:46;;;;;;;1.67;1.57;;;;;;;;;;4894446;28;20426;-72
2023/08/17 00:17:12;;;;;;;1.40;1.40;;;;;;;;;;4893047;29;20559;-72
2023/08/17 00:19:38;;;;;;;1.90;1.80;;;;;;;;;;4892580;29;20275;-73
2023/08/17 00:22:04;;;;;;;1.47;1.40;;;;;;;;;;4897781;28;20197;-74
2023/08/17 00:24:30;;;;;;;4.37;1.93;;;;;;;;;;4893064;28;20437;-74
2023/08/17 00:26:56;;;;;;;2.50;2.33;;;;;;;;;;4894415;29;20918;-73
2023/08/17 00:29:22;;;;;;;3.93;2.23;;;;;;;;;;4892763;29;20528;-72
2023/08/17 00:31:48;;;;;;;1.83;1.73;;;;;;;;;;4893285;28;20244;-74
2023/08/17 00:34:14;;;;;;;4.03;2.10;;;;;;;;;;4891669;28;20528;-71
2023/08/17 00:36:40;;;;;;;2.70;2.50;;;;;;;;;;4891994;28;20632;-71
2023/08/17 00:39:06;;;;;;;6.40;2.43;;;;;;;;;;4894208;28;20441;-71
2023/08/17 00:41:32;;;;;;;1.70;1.70;;;;;;;;;;4893618;28;20445;-72
2023/08/17 00:43:58;;;;;;;2.00;2.00;;;;;;;;;;4893636;28;20186;-71
2023/08/17 00:46:24;;;;;;;1.77;1.70;;;;;;;;;;4893954;28;20441;-72
2023/08/17 00:48:50;;;;;;;1.83;1.73;;;;;;;;;;4893171;28;20445;-73
2023/08/17 00:51:16;;;;;;;2.07;2.07;;;;;;;;;;4893002;28;20453;-72
2023/08/17 00:53:42;;;;;;;2.87;2.33;;;;;;;;;;4892918;28;20829;-71
2023/08/17 00:56:09;;;;;;;2.10;2.00;;;;;;;;;;4891984;28;20492;-70
2023/08/17 00:58:35;;;;;;;1.80;1.70;;;;;;;;;;4893767;28;20555;-70
2023/08/17 01:01:02;;;;;;;5.17;1.83;;;;;;;;;;4893485;28;20449;-69
2023/08/17 01:03:32;;;;;;;2.43;2.30;;;;;;;;;;4893068;28;20449;-69
2023/08/17 01:05:58;;;;;;;2.43;2.33;;;;;;;;;;4893285;28;20554;-70
2023/08/17 01:08:24;;;;;;;2.40;2.30;;;;;;;;;;4892114;28;20444;-70
2023/08/17 01:10:58;;;;;;;2.90;2.70;;;;;;;;;;4892962;28;22176;-69
2023/08/17 01:13:50;;;;;;;2.90;2.80;;;;;;;;;;4892652;29;20947;-71
2023/08/17 01:16:19;;;;;;;2.27;2.07;;;;;;;;;;4890825;28;20497;-70
2023/08/17 01:18:46;;;;;;;3.30;2.40;;;;;;;;;;4892534;28;20476;-73
2023/08/17 01:21:14;;;;;;;2.40;2.33;;;;;;;;;;4892427;28;20524;-72
2023/08/17 01:23:40;;;;;;;3.00;2.73;;;;;;;;;;4894286;28;20434;-69
2023/08/17 01:26:06;;;;;;;2.73;2.50;;;;;;;;;;4893409;29;20824;-71
2023/08/17 01:28:32;;;;;;;3.93;2.63;;;;;;;;;;4892763;28;20553;-72
2023/08/17 01:31:01;;;;;;;3.37;2.50;;;;;;;;;;4893004;28;20511;-70
2023/08/17 01:33:41;;;;;;;3.17;2.40;;;;;;;;;;4892212;29;20449;-72
2023/08/17 01:36:21;;;;;;;1.90;1.90;;;;;;;;;;4891609;28;20575;-71
2023/08/17 01:38:48;;;;;;;1.97;1.97;;;;;;;;;;4893519;28;20441;-70
2023/08/17 01:41:15;;;;;;;3.27;2.93;;;;;;;;;;4893300;28;20977;-72
2023/08/17 01:43:45;;;;;;;2.00;1.87;;;;;;;;;;4891948;29;20458;-70
2023/08/17 01:46:13;;;;;;;2.10;2.00;;;;;;;;;;4893424;28;20472;-70
2023/08/17 01:48:39;;;;;;;2.17;1.97;;;;;;;;;;4892689;28;20442;-70
2023/08/17 01:51:05;;;;;;;2.50;2.03;;;;;;;;;;4892092;28;20437;-70
2023/08/17 01:53:31;;;;;;;2.00;1.90;;;;;;;;;;4891959;28;20434;-70
2023/08/17 01:55:57;;;;;;;2.13;2.03;;;;;;;;;;4892787;29;20232;-70
2023/08/17 01:58:23;;;;;;;1.73;1.63;;;;;;;;;;4892654;29;20452;-69
2023/08/17 02:00:49;;;;;;;1.50;1.40;;;;;;;;;;4892327;28;20288;-70
2023/08/17 02:03:14;;;;;;;1.87;1.77;;;;;;;;;;4891281;28;20438;-70
2023/08/17 02:05:44;;;;;;;1.50;1.50;;;;;;;;;;4890945;28;20460;-70
2023/08/17 02:08:10;;;;;;;1.90;1.90;;;;;;;;;;4891902;28;20460;-71
2023/08/17 02:10:36;;;;;;;2.13;1.50;;;;;;;;;;4891561;29;20950;-71
2023/08/17 02:13:03;;;;;;;1.70;1.63;;;;;;;;;;4893062;28;20469;-69
2023/08/17 02:15:28;;;;;;;1.77;1.77;;;;;;;;;;4892581;28;20622;-69
2023/08/17 02:17:54;;;;;;;2.57;1.40;;;;;;;;;;4891481;28;21077;-72
2023/08/17 02:20:20;;;;;;;2.40;2.20;;;;;;;;;;4891675;28;20446;-71
2023/08/17 02:22:46;;;;;;;3.53;3.23;;;;;;;;;;4891415;28;20507;-69
2023/08/17 02:25:13;;;;;;;1.93;1.83;;;;;;;;;;4892288;28;20470;-72
2023/08/17 02:27:39;;;;;;;1.97;1.93;;;;;;;;;;4891905;28;20861;-73
2023/08/17 02:30:06;;;;;;;2.10;2.00;;;;;;;;;;4892796;28;20914;-74
2023/08/17 02:32:32;;;;;;;1.33;1.33;;;;;;;;;;4892103;28;20417;-71
2023/08/17 02:34:57;;;;;;;6.33;1.97;;;;;;;;;;4891197;28;20456;-72
2023/08/17 02:37:23;;;;;;;5.93;2.30;;;;;;;;;;4892475;28;20580;-71
2023/08/17 02:39:49;;;;;;;4.87;2.13;;;;;;;;;;4891721;29;20934;-73
2023/08/17 02:42:15;;;;;;;2.30;2.30;;;;;;;;;;4891476;29;20863;-74
2023/08/17 02:44:41;;;;;;;2.50;2.40;;;;;;;;;;4891957;28;20459;-73
2023/08/17 02:47:07;;;;;;;4.40;2.50;;;;;;;;;;4891581;29;20448;-71
2023/08/17 02:49:33;;;;;;;2.67;2.57;;;;;;;;;;4891259;28;20966;-73
2023/08/17 02:51:59;;;;;;;7.07;3.50;;;;;;;;;;4891896;29;20840;-71
2023/08/17 02:54:25;;;;;;;6.37;5.60;;;;;;;;;;4891478;28;20610;-71
2023/08/17 02:56:51;;;;;;;6.63;6.10;;;;;;;;;;4890794;29;20324;-70
2023/08/17 02:59:17;;;;;;;8.87;5.90;;;;;;;;;;4892018;29;20216;-71
2023/08/17 03:01:43;;;;;;;11.00;7.87;;;;;;;;;;4891540;29;20216;-71
2023/08/17 03:04:09;;;;;;;8.47;6.80;;;;;;;;;;4889883;28;20477;-71
2023/08/17 03:06:35;;;;;;;7.43;6.60;;;;;;;;;;4891887;28;20477;-72
2023/08/17 03:09:01;;;;;;;10.27;6.07;;;;;;;;;;4891162;29;20200;-74
2023/08/17 03:11:27;;;;;;;11.50;6.40;;;;;;;;;;4890602;29;20488;-73
2023/08/17 03:13:59;;;;;;;10.23;6.10;;;;;;;;;;4890487;28;20272;-73
2023/08/17 03:16:25;;;;;;;5.40;5.00;;;;;;;;;;4891886;28;20489;-71
2023/08/17 03:18:51;;;;;;;9.37;6.07;;;;;;;;;;4889869;28;20482;-72
2023/08/17 03:21:18;;;;;;;6.20;5.17;;;;;;;;;;4891370;29;20457;-73
2023/08/17 03:23:44;;;;;;;9.57;5.53;;;;;;;;;;4890563;28;20460;-70
2023/08/17 03:26:10;;;;;;;8.67;5.77;;;;;;;;;;4891399;28;20461;-72
2023/08/17 03:28:36;;;;;;;9.47;7.60;;;;;;;;;;4891880;28;20495;-74
2023/08/17 03:31:02;;;;;;;13.40;7.60;;;;;;;;;;4892171;28;20473;-71
2023/08/17 03:33:29;;;;;;;7.00;6.30;;;;;;;;;;4889847;28;20442;-70
2023/08/17 03:35:55;;;;;;;8.03;7.30;;;;;;;;;;4891326;28;20561;-71
2023/08/17 03:38:21;;;;;;;10.73;8.43;;;;;;;;;;4890097;28;20528;-70
2023/08/17 03:40:47;;;;;;;12.80;8.07;;;;;;;;;;4890767;28;20422;-70
2023/08/17 03:43:13;;;;;;;8.50;7.60;;;;;;;;;;4890515;29;20449;-71
2023/08/17 03:45:42;;;;;;;8.50;7.60;;;;;;;;;;4891324;28;20495;-70
2023/08/17 03:48:08;;;;;;;12.50;7.33;;;;;;;;;;4890118;28;20796;-70
2023/08/17 03:50:34;;;;;;;9.73;8.60;;;;;;;;;;4890034;29;20438;-70
2023/08/17 03:53:00;;;;;;;7.10;6.50;;;;;;;;;;4891139;29;20838;-70
2023/08/17 03:55:26;;;;;;;7.50;6.80;;;;;;;;;;4890461;28;20481;-71
2023/08/17 03:57:52;;;;;;;12.60;7.80;;;;;;;;;;4890115;29;20454;-69
2023/08/17 04:00:18;;;;;;;13.50;8.87;;;;;;;;;;4891067;29;20429;-75
2023/08/17 04:02:44;;;;;;;13.97;9.70;;;;;;;;;;4889815;28;20458;-69
2023/08/17 04:05:10;;;;;;;13.40;9.20;;;;;;;;;;4890385;28;20882;-69
2023/08/17 04:07:37;;;;;;;15.73;8.73;;;;;;;;;;4891553;28;20540;-69
2023/08/17 04:10:03;;;;;;;14.20;9.30;;;;;;;;;;4890546;28;20968;-71
2023/08/17 04:12:29;;;;;;;17.27;9.00;;;;;;;;;;4890497;28;20501;-78
2023/08/17 04:14:55;;;;;;;9.57;8.23;;;;;;;;;;4890041;28;20957;-77
2023/08/17 04:17:21;;;;;;;11.07;8.73;;;;;;;;;;4890911;28;20495;-76
2023/08/17 04:19:47;;;;;;;14.90;8.00;;;;;;;;;;4891048;28;20972;-71
2023/08/17 04:22:13;;;;;;;9.87;6.97;;;;;;;;;;4890767;28;20450;-79
2023/08/17 04:24:39;;;;;;;9.80;7.77;;;;;;;;;;4889444;28;20453;-74
2023/08/17 04:27:05;;;;;;;8.93;7.70;;;;;;;;;;4890410;29;20454;-77
2023/08/17 04:29:32;;;;;;;11.13;8.13;;;;;;;;;;4889894;28;20850;-71
2023/08/17 04:31:58;;;;;;;6.87;6.10;;;;;;;;;;4893218;28;20486;-70
2023/08/17 04:34:25;;;;;;;16.83;6.53;;;;;;;;;;4892707;28;20429;-70
2023/08/17 04:36:50;;;;;;;9.07;6.23;;;;;;;;;;4893757;28;20525;-70
2023/08/17 04:39:17;;;;;;;8.00;7.20;;;;;;;;;;4893500;28;20468;-63
2023/08/17 04:41:43;;;;;;;10.43;8.00;;;;;;;;;;4893846;28;20489;-65
2023/08/17 04:44:09;;;;;;;7.60;6.83;;;;;;;;;;4893812;29;20442;-61
2023/08/17 04:46:35;;;;;;;8.57;6.40;;;;;;;;;;4893317;28;20804;-67
2023/08/17 04:49:02;;;;;;;9.03;6.83;;;;;;;;;;4892861;28;20430;-64
2023/08/17 04:51:28;;;;;;;8.53;6.50;;;;;;;;;;4894179;28;20864;-62
2023/08/17 04:53:54;;;;;;;7.23;6.63;;;;;;;;;;4893807;28;20505;-64
2023/08/17 04:56:20;;;;;;;9.30;6.23;;;;;;;;;;4893268;28;20493;-62
2023/08/17 04:58:46;;;;;;;7.10;6.53;;;;;;;;;;4893657;29;20433;-62
2023/08/17 05:01:12;;;;;;;7.17;6.63;;;;;;;;;;4891684;28;20460;-61
2023/08/17 05:03:38;;;;;;;9.40;6.67;;;;;;;;;;4892885;28;20442;-62
2023/08/17 05:06:04;;;;;;;6.47;5.90;;;;;;;;;;4889316;28;20462;-61
2023/08/17 05:08:30;;;;;;;5.83;5.60;;;;;;;;;;4890552;28;20977;-62
2023/08/17 05:10:56;;;;;;;6.37;5.87;;;;;;;;;;4889654;28;20434;-61
2023/08/17 05:13:22;;;;;;;6.20;5.73;;;;;;;;;;4892912;29;20438;-62
2023/08/17 05:15:48;;;;;;;6.73;6.13;;;;;;;;;;4891311;29;20485;-67
2023/08/17 05:18:14;;;;;;;6.30;5.80;;;;;;;;;;4892352;28;20494;-62
2023/08/17 05:20:40;;;;;;;6.83;6.27;;;;;;;;;;4894048;28;20472;-65
2023/08/17 05:23:07;;;;;;;11.30;5.80;;;;;;;;;;4892129;28;20465;-62
2023/08/17 05:25:33;;;;;;;6.03;5.70;;;;;;;;;;4891969;28;20450;-67
2023/08/17 05:27:59;;;;;;;10.73;6.60;;;;;;;;;;4893180;28;20805;-62
2023/08/17 05:30:25;;;;;;;7.20;6.60;;;;;;;;;;4892426;28;20540;-62
2023/08/17 05:32:51;;;;;;;11.60;6.70;;;;;;;;;;4891732;28;20444;-70
2023/08/17 05:35:17;;;;;;;7.00;6.40;;;;;;;;;;4890821;28;20965;-66
2023/08/17 05:37:43;;;;;;;6.73;6.13;;;;;;;;;;4892036;28;20468;-65
2023/08/17 05:40:10;;;;;;;7.73;7.10;;;;;;;;;;4892691;29;20833;-63
2023/08/17 05:42:36;;;;;;;6.83;6.23;;;;;;;;;;4891411;28;21005;-62
2023/08/17 05:45:02;;;;;;;8.20;7.30;;;;;;;;;;4891846;28;20521;-63
2023/08/17 05:47:28;;;;;;;9.10;6.30;;;;;;;;;;4891653;28;20449;-61
2023/08/17 05:49:54;;;;;;;7.70;7.10;;;;;;;;;;4891884;28;20434;-68
2023/08/17 05:52:20;;;;;;;7.43;6.73;;;;;;;;;;4892018;28;20445;-70
2023/08/17 05:54:46;;;;;;;12.03;8.50;;;;;;;;;;4891098;28;20445;-64
2023/08/17 05:57:12;;;;;;;9.53;6.70;;;;;;;;;;4892209;28;21104;-71
2023/08/17 05:59:38;;;;;;;7.27;6.60;;;;;;;;;;4890415;28;20477;-69
2023/08/17 06:02:04;;;;;;;8.60;7.77;;;;;;;;;;4890216;28;20471;-70
2023/08/17 06:04:30;;;;;;;7.03;6.50;;;;;;;;;;4886118;28;20457;-71
2023/08/17 06:06:56;;;;;;;6.47;6.00;;;;;;;;;;4890442;28;20445;-70
2023/08/17 06:09:22;;;;;;;6.70;6.20;;;;;;;;;;4890215;28;20456;-69
2023/08/17 06:11:48;;;;;;;12.13;7.23;;;;;;;;;;4891188;28;20445;-70
2023/08/17 06:14:14;;;;;;;7.07;6.47;;;;;;;;;;4892610;28;21211;-70
2023/08/17 06:16:40;;;;;;;7.10;6.40;;;;;;;;;;4892678;28;21162;-69
2023/08/17 06:19:06;;;;;;;9.17;8.17;;;;;;;;;;4891713;28;20477;-69
2023/08/17 06:21:32;;;;;;;9.10;8.17;;;;;;;;;;4892929;28;20437;-70
2023/08/17 06:23:58;;;;;;;10.90;8.33;;;;;;;;;;4892629;29;20930;-71
2023/08/17 06:26:24;;;;;;;6.17;3.80;;;;;;;;;;4891293;28;20468;-70
2023/08/17 06:28:50;;;;;;;8.77;7.60;;;;;;;;;;4892630;28;20469;-71
2023/08/17 06:31:16;;;;;;;7.10;6.60;;;;;;;;;;4892524;28;20934;-70
2023/08/17 06:33:43;;;;;;;7.57;6.90;;;;;;;;;;4893775;28;20456;-69
2023/08/17 06:36:13;;;;;;;7.63;7.03;;;;;;;;;;4892742;28;20477;-70
2023/08/17 06:38:38;;;;;;;7.07;6.57;;;;;;;;;;4892511;28;20783;-70
2023/08/17 06:41:04;;;;;;;7.30;6.70;;;;;;;;;;4892716;28;20429;-70
2023/08/17 06:43:30;;;;;;;8.10;7.40;;;;;;;;;;4891916;28;20986;-70
2023/08/17 06:45:57;;;;;;;6.90;6.43;;;;;;;;;;4892617;28;20747;-71
2023/08/17 06:48:22;;;;;;;6.27;5.97;;;;;;;;;;4890821;28;20452;-69
2023/08/17 06:50:48;;;;;;;8.33;7.63;;;;;;;;;;4892685;28;20438;-69
2023/08/17 06:53:14;;;;;;;7.83;7.13;;;;;;;;;;4892102;28;20769;-70
2023/08/17 06:55:40;;;;;;;7.73;7.20;;;;;;;;;;4892333;28;20478;-70
2023/08/17 06:58:06;;;;;;;7.90;7.10;;;;;;;;;;4892240;29;20205;-70
2023/08/17 07:00:33;;;;;;;6.90;6.40;;;;;;;;;;4892284;28;20493;-72
2023/08/17 07:02:59;;;;;;;10.30;7.50;;;;;;;;;;4891523;28;20480;-70
2023/08/17 07:05:25;;;;;;;7.67;7.10;;;;;;;;;;4891320;28;20457;-70
2023/08/17 07:07:52;;;;;;;7.87;7.13;;;;;;;;;;4892068;28;20446;-70
2023/08/17 07:10:18;;;;;;;7.00;6.50;;;;;;;;;;4889497;28;20433;-69
2023/08/17 07:12:44;;;;;;;7.73;6.70;;;;;;;;;;4891986;28;20806;-71
2023/08/17 07:15:11;;;;;;;9.17;7.50;;;;;;;;;;4892418;29;21005;-71
2023/08/17 07:17:37;;;;;;;9.30;6.77;;;;;;;;;;4893583;28;20481;-69
2023/08/17 07:20:03;;;;;;;7.80;7.10;;;;;;;;;;4892956;28;20517;-70
2023/08/17 07:22:30;;;;;;;12.10;8.57;;;;;;;;;;4893512;28;20512;-70
2023/08/17 07:24:56;;;;;;;10.00;7.27;;;;;;;;;;4891935;29;20452;-69
2023/08/17 07:27:22;;;;;;;12.17;9.70;;;;;;;;;;4891794;28;20430;-70
2023/08/17 07:29:48;;;;;;;6.80;6.40;;;;;;;;;;4891628;29;20417;-69
2023/08/17 07:32:14;;;;;;;5.63;5.43;;;;;;;;;;4891413;29;20484;-70
2023/08/17 07:34:40;;;;;;;9.13;8.23;;;;;;;;;;4892133;28;20458;-69
2023/08/17 07:37:06;;;;;;;7.80;7.20;;;;;;;;;;4891424;28;20503;-69
2023/08/17 07:39:32;;;;;;;7.60;7.00;;;;;;;;;;4890286;28;20440;-69
2023/08/17 07:41:58;;;;;;;10.20;8.13;;;;;;;;;;4891604;29;20445;-70
2023/08/17 07:44:24;;;;;;;8.17;7.30;;;;;;;;;;4891684;28;20792;-71
2023/08/17 07:46:50;;;;;;;9.03;8.13;;;;;;;;;;4891413;28;20461;-71
2023/08/17 07:49:16;;;;;;;9.63;8.33;;;;;;;;;;4893360;28;20442;-70
2023/08/17 07:51:42;;;;;;;19.47;9.07;;;;;;;;;;4891406;28;20450;-71
2023/08/17 07:54:08;;;;;;;8.73;7.63;;;;;;;;;;4890358;28;20449;-70
2023/08/17 07:56:34;;;;;;;8.03;7.27;;;;;;;;;;4891522;29;20539;-70
2023/08/17 07:59:00;;;;;;;15.40;7.60;;;;;;;;;;4891076;28;20783;-71
2023/08/17 08:01:26;;;;;;;8.53;7.87;;;;;;;;;;4892120;28;20438;-70
2023/08/17 08:03:52;;;;;;;12.77;7.53;;;;;;;;;;4890023;28;20938;-72
2023/08/17 08:06:20;;;;;;;8.93;8.13;;;;;;;;;;4891674;28;20475;-72
2023/08/17 08:08:46;;;;;;;9.50;8.50;;;;;;;;;;4893340;28;20425;-70
2023/08/17 08:11:12;;;;;;;9.27;8.30;;;;;;;;;;4894932;29;20514;-70
2023/08/17 08:13:38;;;;;;;7.40;6.87;;;;;;;;;;4894827;29;20933;-69
2023/08/17 08:16:04;;;;;;;12.90;7.90;;;;;;;;;;4893235;28;20501;-69
2023/08/17 08:18:30;;;;;;;11.73;7.53;;;;;;;;;;4893387;28;20469;-70
2023/08/17 08:20:56;;;;;;;9.30;8.47;;;;;;;;;;4894825;28;20429;-69
2023/08/17 08:23:22;;;;;;;12.00;8.80;;;;;;;;;;4894612;29;20429;-70
2023/08/17 08:25:48;;;;;;;9.93;8.70;;;;;;;;;;4893266;28;20181;-70
2023/08/17 08:28:14;;;;;;;9.87;8.20;;;;;;;;;;4894318;29;20480;-69
2023/08/17 08:30:40;;;;;;;15.20;9.53;;;;;;;;;;4898878;28;20446;-70
2023/08/17 08:33:06;;;;;;;10.50;9.40;;;;;;;;;;4892596;28;20551;-69
2023/08/17 08:35:31;;;;;;;11.73;8.87;;;;;;;;;;4891644;28;20445;-70
2023/08/17 08:37:59;;;;;;;8.97;8.23;;;;;;;;;;4893142;28;20946;-70
2023/08/17 08:40:29;;;;;;;9.37;8.20;;;;;;;;;;4892082;28;20526;-69
2023/08/17 08:42:55;;;;;;;9.77;8.77;;;;;;;;;;4889274;28;20442;-73
2023/08/17 08:45:23;;;;;;;10.63;9.60;;;;;;;;;;4892172;29;20434;-73
2023/08/17 08:47:49;;;;;;;17.47;9.90;;;;;;;;;;4891354;29;20805;-69
2023/08/17 08:50:18;;;;;;;12.13;9.83;;;;;;;;;;4892439;28;20436;-72
2023/08/17 08:53:00;;;;;;;18.30;9.33;;;;;;;;;;4892537;28;20480;-73
2023/08/17 08:55:49;;;;;;;11.80;8.77;;;;;;;;;;4891674;28;20437;-69
2023/08/17 08:58:18;;;;;;;9.73;8.90;;;;;;;;;;4899082;28;21028;-69
2023/08/17 09:00:47;;;;;;;10.27;9.17;;;;;;;;;;4892691;28;20433;-69
2023/08/17 09:03:13;;;;;;;11.10;9.30;;;;;;;;;;4889511;28;20603;-69
2023/08/17 09:05:40;;;;;;;13.40;10.20;;;;;;;;;;4893006;28;20493;-69
2023/08/17 09:08:06;;;;;;;11.00;9.60;;;;;;;;;;4892541;28;20973;-73
2023/08/17 09:10:32;;;;;;;11.03;9.50;;;;;;;;;;4893233;29;20922;-69
2023/08/17 09:12:58;;;;;;;15.10;12.17;;;;;;;;;;4892999;29;20437;-70
2023/08/17 09:15:24;;;;;;;14.20;10.07;;;;;;;;;;4892495;28;20448;-70
2023/08/17 09:17:51;;;;;;;13.50;10.40;;;;;;;;;;4891426;28;20244;-70
2023/08/17 09:20:35;;;;;;;11.70;9.80;;;;;;;;;;4891008;28;20458;-70
2023/08/17 09:23:04;;;;;;;9.70;8.80;;;;;;;;;;4892303;28;20441;-71
2023/08/17 09:25:34;;;;;;;10.70;8.00;;;;;;;;;;4890098;29;20453;-72
2023/08/17 09:28:07;;;;;;;20.10;8.93;;;;;;;;;;4892354;28;20442;-71
2023/08/17 09:30:33;;;;;;;11.60;9.20;;;;;;;;;;4891745;29;20434;-73
2023/08/17 09:33:02;;;;;;;7.40;6.23;;;;;;;;;;4890718;28;20452;-73
2023/08/17 09:35:32;;;;;;;11.13;10.03;;;;;;;;;;4891427;28;20213;-71
2023/08/17 09:37:58;;;;;;;14.87;9.57;;;;;;;;;;4891005;28;20450;-71
2023/08/17 09:40:26;;;;;;;11.53;8.87;;;;;;;;;;4889709;28;20441;-72
2023/08/17 09:42:54;;;;;;;8.20;7.20;;;;;;;;;;4891296;28;20429;-71
2023/08/17 09:45:20;;;;;;;9.97;8.63;;;;;;;;;;4890535;28;20442;-72
2023/08/17 09:47:46;;;;;;;8.97;8.00;;;;;;;;;;4889506;28;20457;-71
2023/08/17 09:50:12;;;;;;;13.90;8.50;;;;;;;;;;4891561;28;20434;-70
2023/08/17 09:52:39;;;;;;;9.63;8.73;;;;;;;;;;4891346;28;21236;-72
2023/08/17 09:55:06;;;;;;;11.27;8.50;;;;;;;;;;4891146;28;20442;-71
2023/08/17 09:57:33;;;;;;;8.80;8.00;;;;;;;;;;4891233;28;20944;-72
2023/08/17 09:59:59;;;;;;;7.57;6.87;;;;;;;;;;4889729;28;20495;-70
2023/08/17 10:02:25;;;;;;;9.97;9.03;;;;;;;;;;4888119;28;20902;-72
2023/08/17 10:04:52;;;;;;;8.33;7.53;;;;;;;;;;4896359;28;20212;-70
2023/08/17 10:07:22;;;;;;;8.10;7.43;;;;;;;;;;4892987;28;20433;-70
2023/08/17 10:09:56;;;;;;;8.73;7.70;;;;;;;;;;4890995;28;20438;-71
2023/08/17 10:12:24;;;;;;;6.27;5.93;;;;;;;;;;4892451;28;20991;-72
2023/08/17 10:14:52;;;;;;;7.70;7.00;;;;;;;;;;4888972;28;20438;-69
2023/08/17 10:17:21;;;;;;;9.17;6.20;;;;;;;;;;4888774;28;20920;-73
2023/08/17 10:19:51;;;;;;;7.60;7.00;;;;;;;;;;4891094;28;20460;-71
2023/08/17 10:22:29;;;;;;;9.10;8.40;;;;;;;;;;4890818;28;20464;-72
2023/08/17 10:24:56;;;;;;;5.43;5.13;;;;;;;;;;4890549;28;20449;-70
2023/08/17 10:27:22;;;;;;;7.23;6.40;;;;;;;;;;4890563;28;20465;-70
2023/08/17 10:29:48;;;;;;;7.97;7.33;;;;;;;;;;4890640;28;20421;-71
2023/08/17 10:32:14;;;;;;;9.70;7.60;;;;;;;;;;4888851;29;20549;-70
2023/08/17 10:34:40;;;;;;;8.07;6.10;;;;;;;;;;4897129;28;20438;-70
2023/08/17 10:37:07;;;;;;;6.40;6.00;;;;;;;;;;4892314;29;20493;-69
2023/08/17 10:39:34;;;;;;;19.50;6.80;;;;;;;;;;4888458;28;20500;-70
2023/08/17 10:42:01;;;;;;;6.83;6.30;;;;;;;;;;4891063;29;20437;-70
2023/08/17 10:44:46;;;;;;;7.53;6.83;;;;;;;;;;4892027;28;20442;-70
2023/08/17 10:47:22;;;;;;;9.40;5.50;;;;;;;;;;4890407;28;20441;-70
2023/08/17 10:49:49;;;;;;;8.03;7.30;;;;;;;;;;4891085;28;20441;-70
2023/08/17 10:52:15;;;;;;;6.97;6.27;;;;;;;;;;4890643;28;20608;-70
2023/08/17 10:54:43;;;;;;;7.33;6.50;;;;;;;;;;4891476;28;20469;-71
2023/08/17 10:57:28;;;;;;;6.53;6.13;;;;;;;;;;4891241;28;20496;-70
2023/08/17 11:00:13;;;;;;;6.53;6.10;;;;;;;;;;4894753;28;20480;-69
2023/08/17 11:02:39;;;;;;;5.20;4.90;;;;;;;;;;4886730;28;20441;-71
2023/08/17 11:05:07;;;;;;;8.43;6.20;;;;;;;;;;4895085;28;20822;-70
2023/08/17 11:07:42;;;;;;;5.37;4.87;;;;;;;;;;4891051;29;20536;-70
2023/08/17 11:10:31;;;;;;;6.17;5.30;;;;;;;;;;4889965;28;20549;-70
2023/08/17 11:13:01;;;;;;;5.60;5.07;;;;;;;;;;4899646;28;20438;-69
2023/08/17 11:15:42;;;;;;;5.63;5.23;;;;;;;;;;4892036;28;20795;-71
2023/08/17 11:18:08;;;;;;;6.27;5.67;;;;;;;;;;4889560;28;21079;-70
2023/08/17 11:20:34;;;;;;;5.10;4.90;;;;;;;;;;4889372;28;20434;-71
2023/08/17 11:23:01;;;;;;;9.47;4.83;;;;;;;;;;4890867;28;20532;-70
2023/08/17 11:25:27;;;;;;;5.63;5.23;;;;;;;;;;4891584;28;20807;-69
2023/08/17 11:27:54;;;;;;;6.47;5.97;;;;;;;;;;4891329;28;20445;-72
2023/08/17 11:30:22;;;;;;;3.80;3.70;;;;;;;;;;4889770;28;20799;-71
2023/08/17 11:32:48;;;;;;;7.90;4.50;;;;;;;;;;4889968;28;20739;-73
2023/08/17 11:35:14;;;;;;;3.97;3.87;;;;;;;;;;4890519;28;20441;-70
2023/08/17 11:37:41;;;;;;;4.40;4.30;;;;;;;;;;4890470;28;20848;-69
2023/08/17 11:40:09;;;;;;;5.67;5.20;;;;;;;;;;4885890;29;20429;-71
2023/08/17 11:42:36;;;;;;;5.83;5.30;;;;;;;;;;4893502;28;20531;-71
2023/08/17 11:45:02;;;;;;;5.03;4.83;;;;;;;;;;4893293;28;20864;-70
2023/08/17 11:47:28;;;;;;;4.87;4.43;;;;;;;;;;4891932;28;20950;-70
2023/08/17 11:50:00;;;;;;;3.60;3.40;;;;;;;;;;4893286;28;20516;-70
2023/08/17 11:52:31;;;;;;;11.47;3.37;;;;;;;;;;4894268;28;20429;-70
2023/08/17 11:54:57;;;;;;;6.60;4.63;;;;;;;;;;4894701;28;20410;-70
2023/08/17 11:57:23;;;;;;;7.60;4.13;;;;;;;;;;4894415;29;20564;-71
2023/08/17 11:59:54;;;;;;;3.83;3.73;;;;;;;;;;4892732;28;20429;-69
2023/08/17 12:02:20;;;;;;;6.87;4.57;;;;;;;;;;4891191;28;20464;-70
2023/08/17 12:04:46;;;;;;;4.40;4.10;;;;;;;;;;4892784;29;20491;-71
2023/08/17 12:07:12;;;;;;;7.80;4.80;;;;;;;;;;4893277;28;20437;-71
2023/08/17 12:09:38;;;;;;;4.17;3.80;;;;;;;;;;4893181;28;20967;-69
2023/08/17 12:12:04;;;;;;;7.83;4.40;;;;;;;;;;4893846;29;20425;-70
2023/08/17 12:14:30;;;;;;;4.40;4.00;;;;;;;;;;4893393;28;20985;-72
2023/08/17 12:16:56;;;;;;;3.90;3.60;;;;;;;;;;4894161;28;20480;-71
2023/08/17 12:19:22;;;;;;;6.00;4.10;;;;;;;;;;4894141;28;20473;-70
2023/08/17 12:21:49;;;;;;;4.17;3.33;;;;;;;;;;4894236;28;20512;-70
2023/08/17 12:24:16;;;;;;;4.70;4.50;;;;;;;;;;4893693;28;20470;-70
2023/08/17 12:26:43;;;;;;;3.50;3.40;;;;;;;;;;4893810;28;20452;-70
2023/08/17 12:29:09;;;;;;;32.60;7.40;;;;;;;;;;4893311;29;20429;-70
2023/08/17 12:31:35;;;;;;;4.00;3.90;;;;;;;;;;4894226;28;20533;-71
2023/08/17 12:34:01;;;;;;;4.00;3.80;;;;;;;;;;4893013;28;20422;-69
2023/08/17 12:36:27;;;;;;;8.23;4.50;;;;;;;;;;4892844;29;20481;-70
2023/08/17 12:38:53;;;;;;;11.13;3.60;;;;;;;;;;4893539;28;20480;-70
2023/08/17 12:41:19;;;;;;;7.80;3.67;;;;;;;;;;4893516;28;20461;-69
2023/08/17 12:43:45;;;;;;;8.43;4.33;;;;;;;;;;4893495;28;20547;-69
2023/08/17 12:46:11;;;;;;;4.33;3.93;;;;;;;;;;4894173;28;20426;-69
2023/08/17 12:48:38;;;;;;;3.63;3.53;;;;;;;;;;4894167;28;20988;-70
2023/08/17 12:51:04;;;;;;;5.30;3.47;;;;;;;;;;4892634;28;20850;-70
2023/08/17 12:53:30;;;;;;;4.07;3.67;;;;;;;;;;4892467;28;21713;-69
2023/08/17 12:55:56;;;;;;;4.53;3.40;;;;;;;;;;4892986;28;22036;-70
2023/08/17 12:58:22;;;;;;;3.60;3.40;;;;;;;;;;4895687;28;20438;-70
2023/08/17 13:00:50;;;;;;;4.00;3.77;;;;;;;;;;4894260;28;20425;-69
2023/08/17 13:03:16;;;;;;;4.20;3.10;;;;;;;;;;4893245;29;20834;-69
2023/08/17 13:05:42;;;;;;;3.57;3.47;;;;;;;;;;4892375;28;20941;-69
2023/08/17 13:08:09;;;;;;;11.93;3.30;;;;;;;;;;4894086;28;20442;-69
2023/08/17 13:10:35;;;;;;;3.60;3.30;;;;;;;;;;4894237;28;20422;-69
2023/08/17 13:13:01;;;;;;;2.80;2.80;;;;;;;;;;4893539;29;20813;-70
2023/08/17 13:15:27;;;;;;;3.47;3.27;;;;;;;;;;4892756;28;20442;-70
2023/08/17 13:17:53;;;;;;;5.00;2.83;;;;;;;;;;4892825;28;20504;-70
2023/08/17 13:20:19;;;;;;;3.60;3.50;;;;;;;;;;4893681;29;20422;-71
2023/08/17 13:22:45;;;;;;;3.70;3.33;;;;;;;;;;4892093;28;20476;-72
2023/08/17 13:25:11;;;;;;;4.23;3.60;;;;;;;;;;4894011;28;20429;-70
2023/08/17 13:27:37;;;;;;;13.30;3.87;;;;;;;;;;4893318;28;20456;-69
2023/08/17 13:30:03;;;;;;;4.00;3.20;;;;;;;;;;4893738;29;20438;-70
2023/08/17 13:32:29;;;;;;;3.77;3.40;;;;;;;;;;4892939;28;20442;-71
2023/08/17 13:34:55;;;;;;;4.20;3.90;;;;;;;;;;4892047;28;20437;-70
2023/08/17 13:37:21;;;;;;;3.53;3.33;;;;;;;;;;4893608;28;20855;-70
2023/08/17 13:39:47;;;;;;;7.57;3.57;;;;;;;;;;4893146;28;20436;-70
2023/08/17 13:42:13;;;;;;;4.17;3.80;;;;;;;;;;4893031;28;20457;-70
2023/08/17 13:44:39;;;;;;;3.47;2.90;;;;;;;;;;4893245;28;20532;-70
2023/08/17 13:47:05;;;;;;;3.60;3.40;;;;;;;;;;4891695;28;20531;-69
2023/08/17 13:49:31;;;;;;;4.60;3.77;;;;;;;;;;4892248;28;20441;-70
2023/08/17 13:51:57;;;;;;;6.33;4.10;;;;;;;;;;4892881;28;20513;-70
2023/08/17 13:54:23;;;;;;;4.23;4.03;;;;;;;;;;4893155;28;20517;-70
2023/08/17 13:56:49;;;;;;;4.20;4.10;;;;;;;;;;4893356;28;20517;-69
2023/08/17 13:59:15;;;;;;;4.60;4.50;;;;;;;;;;4893246;29;21051;-70
2023/08/17 14:01:41;;;;;;;5.43;4.50;;;;;;;;;;4891296;28;20465;-69
2023/08/17 14:04:11;;;;;;;8.80;4.20;;;;;;;;;;4891619;28;20949;-72
2023/08/17 14:06:37;;;;;;;4.33;4.10;;;;;;;;;;4893164;28;20434;-70
2023/08/17 14:09:03;;;;;;;4.83;4.50;;;;;;;;;;4892967;28;20509;-69
2023/08/17 14:11:29;;;;;;;6.03;4.23;;;;;;;;;;4893161;28;20425;-69
2023/08/17 14:13:55;;;;;;;4.33;4.13;;;;;;;;;;4892660;28;20461;-70
2023/08/17 14:16:21;;;;;;;4.17;3.90;;;;;;;;;;4892502;28;20363;-69
2023/08/17 14:18:47;;;;;;;4.67;4.27;;;;;;;;;;4891753;28;20233;-69
2023/08/17 14:21:13;;;;;;;4.10;3.90;;;;;;;;;;4893113;29;20428;-69
2023/08/17 14:23:40;;;;;;;9.97;4.13;;;;;;;;;;4891716;29;20536;-70
2023/08/17 14:26:06;;;;;;;4.77;3.93;;;;;;;;;;4892069;28;20197;-69
2023/08/17 14:28:32;;;;;;;3.90;3.80;;;;;;;;;;4889720;28;20469;-70
2023/08/17 14:30:58;;;;;;;4.47;4.17;;;;;;;;;;4892468;28;20433;-69
2023/08/17 14:33:25;;;;;;;4.33;4.03;;;;;;;;;;4891040;28;21032;-69
2023/08/17 14:35:51;;;;;;;4.20;4.00;;;;;;;;;;4889338;28;20434;-70
2023/08/17 14:38:17;;;;;;;5.23;3.90;;;;;;;;;;4891748;28;20851;-70